Time;durP1;ratioP1;P1;durP2;ratioP2;P2;SDS_P1;SDS_P2;PMS_P1;PMS_P2;Temp;Humidity;BMP_temperature;BMP_pressure;BME280_temperature;BME280_humidity;BME280_pressure;Samples;Min_cycle;Max_cycle;Signal;HPM_P1;HPM_P2
2023/03/07 00:01:41;;;;;;;7.37;4.83;;;;;;;2.82;100.00;99815.88;5093485;28;20102;-88
2023/03/07 00:04:06;;;;;;;7.40;4.87;;;;;;;2.81;100.00;99813.47;5094292;28;20032;-87
2023/03/07 00:06:31;;;;;;;6.57;5.30;;;;;;;2.77;100.00;99813.13;5093808;28;20044;-88
2023/03/07 00:08:59;;;;;;;5.17;3.90;;;;;;;2.76;100.00;99819.44;5098862;28;20035;-88
2023/03/07 00:11:26;;;;;;;5.72;3.92;;;;;;;2.74;100.00;99813.56;5112084;28;20028;-88
2023/03/07 00:13:52;;;;;;;6.88;3.83;;;;;;;2.71;100.00;99812.22;5095045;28;20472;-88
2023/03/07 00:16:19;;;;;;;6.25;3.97;;;;;;;2.71;100.00;99814.06;5102488;28;20039;-88
2023/03/07 00:18:47;;;;;;;3.00;2.50;;;;;;;2.67;100.00;99807.63;5109462;28;20657;-88
2023/03/07 00:21:15;;;;;;;4.85;2.95;;;;;;;2.61;100.00;99822.56;5061117;28;20526;-88
2023/03/07 00:23:43;;;;;;;3.83;2.27;;;;;;;2.55;100.00;99811.06;5074902;28;20055;-87
2023/03/07 00:26:17;;;;;;;3.63;1.93;;;;;;;2.48;100.00;99813.00;5073509;28;20279;-88
2023/03/07 00:28:46;;;;;;;3.30;2.10;;;;;;;2.42;100.00;99803.34;5076336;28;20122;-88
2023/03/07 00:31:11;;;;;;;2.40;1.42;;;;;;;2.33;100.00;99799.44;5108488;28;20031;-88
2023/03/07 00:33:37;;;;;;;3.72;1.80;;;;;;;2.32;100.00;99798.59;5096336;28;20030;-88
2023/03/07 00:36:10;;;;;;;2.03;1.48;;;;;;;2.27;100.00;99794.00;5112496;28;20466;-88
2023/03/07 00:38:35;;;;;;;3.23;1.60;;;;;;;2.17;100.00;99785.03;5075185;28;20048;-88
2023/03/07 00:41:02;;;;;;;1.80;1.30;;;;;;;2.20;100.00;99795.94;5061397;28;20480;-88
2023/03/07 00:43:28;;;;;;;3.20;1.52;;;;;;;2.12;100.00;99778.56;5055589;28;20087;-88
2023/03/07 00:45:55;;;;;;;1.23;1.00;;;;;;;2.15;100.00;99790.56;5073687;28;20036;-88
2023/03/07 00:48:22;;;;;;;2.55;1.40;;;;;;;2.12;100.00;99781.22;5094037;28;20032;-89
2023/03/07 00:50:47;;;;;;;2.10;1.00;;;;;;;2.16;100.00;99792.16;5075116;28;20387;-88
2023/03/07 00:53:13;;;;;;;3.20;1.25;;;;;;;2.13;100.00;99774.13;5093459;28;20032;-88
2023/03/07 00:55:39;;;;;;;2.00;1.27;;;;;;;2.13;100.00;99784.69;5090962;28;20028;-89
2023/03/07 00:58:05;;;;;;;2.87;1.27;;;;;;;2.12;100.00;99772.50;5092881;28;20035;-88
2023/03/07 01:00:30;;;;;;;1.63;1.20;;;;;;;2.14;100.00;99772.25;5092487;28;20069;-88
2023/03/07 01:02:57;;;;;;;3.57;1.20;;;;;;;2.11;100.00;99781.47;5092055;28;20020;-88
2023/03/07 01:05:22;;;;;;;2.17;1.52;;;;;;;2.15;100.00;99771.22;5088369;28;20051;-88
2023/03/07 01:07:48;;;;;;;1.70;1.23;;;;;;;2.14;100.00;99780.19;5092189;28;20483;-89
2023/03/07 01:10:13;;;;;;;3.73;1.27;;;;;;;2.14;100.00;99781.00;5075228;28;20168;-88
2023/03/07 01:12:38;;;;;;;5.13;2.08;;;;;;;2.16;100.00;99776.31;5113379;28;20028;-88
2023/03/07 01:15:05;;;;;;;2.50;1.50;;;;;;;2.12;100.00;99765.38;5113038;28;20015;-89
2023/03/07 01:17:32;;;;;;;3.95;1.75;;;;;;;2.12;100.00;99756.66;5095613;28;20382;-88
2023/03/07 01:19:57;;;;;;;4.57;1.77;;;;;;;2.21;100.00;99776.41;5092631;28;20078;-88
2023/03/07 01:22:22;;;;;;;4.03;2.00;;;;;;;2.23;100.00;99763.78;5093375;28;20048;-88
2023/03/07 01:24:48;;;;;;;3.20;2.13;;;;;;;2.27;100.00;99764.94;5092887;28;20032;-89
2023/03/07 01:27:13;;;;;;;5.43;3.37;;;;;;;2.32;100.00;99758.16;5097943;28;20546;-89
2023/03/07 01:29:38;;;;;;;3.60;2.80;;;;;;;2.28;100.00;99749.88;5112737;28;20024;-86
2023/03/07 01:32:04;;;;;;;3.60;2.40;;;;;;;2.36;100.00;99760.09;5095063;28;20109;-88
2023/03/07 01:34:29;;;;;;;3.85;2.70;;;;;;;2.36;100.00;99756.69;5092485;28;20550;-88
2023/03/07 01:36:55;;;;;;;3.50;2.43;;;;;;;2.37;100.00;99753.78;5096647;28;20039;-89
2023/03/07 01:39:20;;;;;;;6.33;2.53;;;;;;;2.36;100.00;99746.09;5089329;28;20035;-89
2023/03/07 01:41:46;;;;;;;4.23;2.70;;;;;;;2.33;100.00;99736.75;5098174;28;20030;-88
2023/03/07 01:44:21;;;;;;;4.78;2.65;;;;;;;2.37;100.00;99745.06;5097196;28;20020;-89
2023/03/07 01:46:58;;;;;;;8.00;3.30;;;;;;;2.38;100.00;99736.06;5108056;28;20024;-89
2023/03/07 01:49:36;;;;;;;5.35;3.03;;;;;;;2.45;100.00;99733.34;5092784;28;20012;-88
2023/03/07 01:52:24;;;;;;;4.78;3.15;;;;;;;2.44;100.00;99737.81;5077101;28;20024;-88
2023/03/07 01:55:09;;;;;;;5.37;3.40;;;;;;;2.47;100.00;99731.25;5061325;28;20108;-88
2023/03/07 01:57:38;;;;;;;7.32;3.72;;;;;;;2.52;100.00;99737.47;5072852;28;20016;-88
2023/03/07 02:00:08;;;;;;;6.40;3.85;;;;;;;2.52;100.00;99726.06;5090310;28;20099;-89
2023/03/07 02:02:36;;;;;;;5.55;4.50;;;;;;;2.56;100.00;99727.22;5109667;28;20023;-88
2023/03/07 02:05:41;;;;;;;7.85;4.70;;;;;;;2.58;100.00;99723.31;5108079;28;20020;-88
2023/03/07 02:08:10;;;;;;;7.90;4.22;;;;;;;2.58;100.00;99725.94;5077979;28;20077;-88
2023/03/07 02:10:39;;;;;;;7.68;4.70;;;;;;;2.56;100.00;99717.44;5085150;28;20092;-88
2023/03/07 02:13:04;;;;;;;8.50;4.63;;;;;;;2.60;100.00;99714.34;5097519;28;20033;-88
2023/03/07 02:15:32;;;;;;;7.37;4.70;;;;;;;2.55;100.00;99709.75;5114789;28;20016;-88
2023/03/07 02:17:57;;;;;;;9.55;4.60;;;;;;;2.54;100.00;99702.84;5116275;28;20024;-87
2023/03/07 02:20:46;;;;;;;8.40;4.97;;;;;;;2.55;100.00;99712.38;5106230;28;20047;-88
2023/03/07 02:23:25;;;;;;;7.63;5.20;;;;;;;2.60;100.00;99709.03;5096056;28;20016;-88
2023/03/07 02:25:57;;;;;;;9.40;4.93;;;;;;;2.55;100.00;99707.91;5094405;28;20089;-85
2023/03/07 02:28:24;;;;;;;10.88;5.22;;;;;;;2.55;100.00;99707.91;5094220;28;20023;-85
2023/03/07 02:31:01;;;;;;;6.55;4.22;;;;;;;2.58;100.00;99706.66;5110472;28;20032;-85
2023/03/07 02:33:27;;;;;;;8.50;4.90;;;;;;;2.61;100.00;99708.00;5085734;28;20376;-85
2023/03/07 02:36:03;;;;;;;6.87;4.47;;;;;;;2.57;100.00;99697.88;5072705;28;20035;-85
2023/03/07 02:38:35;;;;;;;8.65;4.97;;;;;;;2.62;100.00;99706.97;5090578;28;20209;-85
2023/03/07 02:41:01;;;;;;;10.60;5.07;;;;;;;2.57;100.00;99697.88;5108918;28;20024;-84
2023/03/07 02:43:28;;;;;;;7.95;4.75;;;;;;;2.57;100.00;99684.66;5093944;28;20054;-85
2023/03/07 02:45:54;;;;;;;8.52;5.07;;;;;;;2.49;100.00;99682.41;5104947;28;20478;-84
2023/03/07 02:48:20;;;;;;;7.27;4.10;;;;;;;2.54;100.00;99693.09;5093217;28;20039;-85
2023/03/07 02:50:47;;;;;;;7.30;4.20;;;;;;;2.49;100.00;99679.75;5090987;28;20027;-85
2023/03/07 02:53:14;;;;;;;5.68;3.90;;;;;;;2.51;100.00;99684.78;5091236;28;20483;-85
2023/03/07 02:55:40;;;;;;;6.32;3.90;;;;;;;2.47;100.00;99686.28;5092711;28;20102;-85
2023/03/07 02:58:05;;;;;;;7.23;4.07;;;;;;;2.52;100.00;99687.22;5109119;28;20023;-85
2023/03/07 03:00:30;;;;;;;9.23;3.70;;;;;;;2.49;100.00;99681.56;5104648;28;20104;-87
2023/03/07 03:02:56;;;;;;;5.87;3.70;;;;;;;2.54;100.00;99689.63;5089568;28;20163;-85
2023/03/07 03:05:21;;;;;;;7.97;4.03;;;;;;;2.46;100.00;99677.56;5101886;28;20056;-85
2023/03/07 03:07:47;;;;;;;8.03;3.43;;;;;;;2.47;100.00;99676.53;5094988;28;20036;-85
2023/03/07 03:10:13;;;;;;;8.17;4.27;;;;;;;2.51;100.00;99690.91;5090766;28;20104;-85
2023/03/07 03:12:38;;;;;;;7.22;4.03;;;;;;;2.52;100.00;99686.41;5095764;28;20106;-85
2023/03/07 03:15:04;;;;;;;6.10;3.53;;;;;;;2.49;100.00;99682.41;5094316;28;20471;-85
2023/03/07 03:17:29;;;;;;;7.70;4.20;;;;;;;2.53;100.00;99699.41;5089237;28;20020;-85
2023/03/07 03:19:55;;;;;;;7.20;4.00;;;;;;;2.49;100.00;99684.22;5072674;28;20020;-85
2023/03/07 03:22:20;;;;;;;10.53;4.03;;;;;;;2.50;100.00;99686.66;5070951;28;20032;-85
2023/03/07 03:24:46;;;;;;;7.03;4.00;;;;;;;2.47;100.00;99676.53;5077831;28;20036;-85
2023/03/07 03:27:11;;;;;;;8.07;4.10;;;;;;;2.40;100.00;99668.72;5090071;28;20117;-85
2023/03/07 03:29:36;;;;;;;6.40;3.67;;;;;;;2.47;100.00;99679.16;5090155;28;20028;-84
2023/03/07 03:32:02;;;;;;;5.87;3.87;;;;;;;2.41;100.00;99669.50;5106378;28;20024;-85
2023/03/07 03:34:27;;;;;;;8.27;3.97;;;;;;;2.41;100.00;99664.22;5102306;28;20031;-85
2023/03/07 03:36:53;;;;;;;6.27;3.83;;;;;;;2.44;100.00;99677.00;5104481;28;20035;-85
2023/03/07 03:39:18;;;;;;;8.67;4.20;;;;;;;2.43;100.00;99662.16;5090527;28;20081;-87
2023/03/07 03:41:43;;;;;;;7.27;4.47;;;;;;;2.46;100.00;99666.19;5098232;28;20028;-85
2023/03/07 03:44:09;;;;;;;9.93;4.28;;;;;;;2.32;100.00;99649.75;5108011;28;20348;-85
2023/03/07 03:46:35;;;;;;;13.47;4.40;;;;;;;2.39;100.00;99661.81;5091010;28;20020;-86
2023/03/07 03:49:01;;;;;;;11.10;4.55;;;;;;;2.39;100.00;99650.44;5090300;28;20032;-85
2023/03/07 03:51:26;;;;;;;10.33;4.20;;;;;;;2.46;100.00;99666.97;5102394;28;20047;-86
2023/03/07 03:53:52;;;;;;;9.82;4.40;;;;;;;2.18;100.00;99615.66;5089052;28;20042;-86
2023/03/07 03:56:22;;;;;;;7.73;4.17;;;;;;;2.45;100.00;99654.78;5090625;28;20039;-86
2023/03/07 03:58:54;;;;;;;8.00;4.35;;;;;;;2.40;100.00;99646.75;5091717;28;20450;-86
2023/03/07 04:01:21;;;;;;;8.50;3.80;;;;;;;2.36;100.00;99645.63;5090478;28;20028;-85
2023/03/07 04:03:49;;;;;;;7.32;3.65;;;;;;;2.38;100.00;99644.34;5106168;28;20515;-87
2023/03/07 04:06:20;;;;;;;5.70;3.40;;;;;;;2.38;100.00;99635.59;5083025;28;20047;-84
2023/03/07 04:08:46;;;;;;;6.60;3.37;;;;;;;2.36;100.00;99637.69;5095031;28;20334;-86
2023/03/07 04:11:13;;;;;;;5.40;3.42;;;;;;;2.27;100.00;99621.38;5091548;28;20032;-86
2023/03/07 04:13:38;;;;;;;5.72;3.33;;;;;;;2.26;100.00;99623.22;5089700;28;20024;-85
2023/03/07 04:19:43;;;;;;;5.37;3.77;;;;;;;2.07;100.00;99574.16;5071951;28;20675;-85
2023/03/07 04:22:09;;;;;;;9.75;3.83;;;;;;;2.34;100.00;99608.03;5090560;28;20034;-85
2023/03/07 04:24:34;;;;;;;5.97;3.60;;;;;;;2.31;100.00;99603.22;5092775;28;20135;-85
2023/03/07 04:26:59;;;;;;;8.00;3.93;;;;;;;2.25;100.00;99597.81;5090056;28;20341;-84
2023/03/07 04:29:25;;;;;;;7.43;3.80;;;;;;;2.27;100.00;99594.94;5092551;28;20028;-85
2023/03/07 04:31:50;;;;;;;9.87;4.37;;;;;;;2.36;100.00;99604.13;5071231;28;20017;-85
2023/03/07 04:34:16;;;;;;;6.80;3.80;;;;;;;2.37;100.00;99602.28;5077684;28;20055;-84
2023/03/07 04:36:41;;;;;;;8.07;3.90;;;;;;;2.36;100.00;99598.03;5098010;28;20297;-85
2023/03/07 04:39:06;;;;;;;5.80;3.37;;;;;;;2.36;100.00;99598.03;5111076;28;20020;-85
2023/03/07 04:41:33;;;;;;;7.40;3.70;;;;;;;2.23;100.00;99573.44;5112669;28;20032;-84
2023/03/07 04:43:59;;;;;;;6.57;4.03;;;;;;;2.35;100.00;99591.94;5096002;28;20116;-84
2023/03/07 04:46:25;;;;;;;9.17;3.37;;;;;;;2.21;100.00;99572.88;5108599;28;20412;-85
2023/03/07 04:48:50;;;;;;;6.75;3.63;;;;;;;2.27;100.00;99585.16;5102017;28;20024;-85
2023/03/07 04:51:16;;;;;;;7.33;3.50;;;;;;;2.25;100.00;99579.31;5077282;28;20387;-85
2023/03/07 04:53:41;;;;;;;7.78;3.17;;;;;;;2.31;100.00;99590.78;5092588;28;20380;-85
2023/03/07 04:56:08;;;;;;;8.63;3.10;;;;;;;2.33;100.00;99578.13;5089453;28;20186;-85
2023/03/07 04:58:35;;;;;;;10.73;3.53;;;;;;;2.27;100.00;99577.25;5090707;28;20021;-84
2023/03/07 05:01:01;;;;;;;7.22;3.78;;;;;;;2.23;100.00;99576.09;5061185;28;20017;-84
2023/03/07 05:03:27;;;;;;;6.95;3.60;;;;;;;2.31;100.00;99585.50;5105388;28;20069;-84
2023/03/07 05:05:53;;;;;;;7.77;3.20;;;;;;;2.29;100.00;99574.34;5117498;28;20016;-85
2023/03/07 05:08:20;;;;;;;8.25;3.40;;;;;;;2.29;100.00;99577.00;5114054;28;20083;-84
2023/03/07 05:10:45;;;;;;;10.10;3.78;;;;;;;2.22;100.00;99574.47;5098752;28;20028;-83
2023/03/07 05:13:10;;;;;;;6.67;3.80;;;;;;;2.27;100.00;99577.25;5076789;28;20069;-85
2023/03/07 05:15:39;;;;;;;10.40;4.30;;;;;;;2.27;100.00;99577.25;5588515;22;20460;-85
2023/03/07 05:18:05;;;;;;;11.75;3.95;;;;;;;2.21;100.00;99572.88;5055508;28;20064;-85
2023/03/07 05:29:10;;;;;;;11.77;4.30;;;;;;;1.96;100.00;99525.59;5190285;22;20459;-86
2023/03/07 05:31:36;;;;;;;10.98;4.47;;;;;;;1.99;100.00;99532.25;5052192;28;20021;-86
2023/03/07 05:34:09;;;;;;;11.40;4.22;;;;;;;1.88;100.00;99507.47;5077845;28;20099;-87
2023/03/07 05:36:38;;;;;;;12.90;4.33;;;;;;;1.87;100.00;99506.63;5075936;28;20453;-87
2023/03/07 05:39:06;;;;;;;10.68;4.10;;;;;;;2.20;100.00;99551.97;5072399;28;20017;-87
2023/03/07 05:41:31;;;;;;;12.07;4.45;;;;;;;2.01;100.00;99527.56;5037988;28;20029;-86
2023/03/07 05:43:57;;;;;;;13.30;4.40;;;;;;;2.19;100.00;99551.16;5087945;28;20486;-86
2023/03/07 05:46:25;;;;;;;8.93;4.45;;;;;;;1.95;100.00;99519.50;5090862;28;20479;-86
2023/03/07 05:48:57;;;;;;;11.05;4.05;;;;;;;2.01;100.00;99524.91;5074673;28;20059;-86
2023/03/07 05:51:34;;;;;;;9.38;4.30;;;;;;;2.22;100.00;99555.19;5073566;28;20026;-89
2023/03/07 05:53:59;;;;;;;7.32;4.40;;;;;;;2.05;100.00;99528.66;5089221;28;20125;-87
2023/03/07 05:56:25;;;;;;;12.37;4.53;;;;;;;2.12;100.00;99538.06;5090987;28;20499;-86
2023/03/07 05:58:50;;;;;;;10.73;4.70;;;;;;;2.15;100.00;99538.66;5089916;28;20089;-88
2023/03/07 06:01:15;;;;;;;14.57;4.97;;;;;;;1.94;100.00;99501.22;5094106;28;20074;-86
2023/03/07 06:03:42;;;;;;;12.18;4.50;;;;;;;2.15;100.00;99520.97;5110349;28;20120;-88
2023/03/07 06:06:08;;;;;;;10.23;4.67;;;;;;;2.19;100.00;99531.88;5036787;28;20046;-89
2023/03/07 06:09:31;;;;;;;12.00;4.78;;;;;;;2.31;100.00;99535.25;5073342;28;20317;-87
2023/03/07 06:11:56;;;;;;;12.00;4.80;;;;;;;2.12;100.00;99516.94;5001781;28;20434;-87
2023/03/07 06:17:57;;;;;;;8.85;4.80;;;;;;;2.33;100.00;99546.41;5247285;22;20048;-87
2023/03/07 06:20:31;;;;;;;12.73;5.00;;;;;;;2.23;100.00;99528.50;5096557;28;20070;-86
2023/03/07 06:23:06;;;;;;;15.70;5.40;;;;;;;2.31;100.00;99537.13;5090705;28;20032;-88
2023/03/07 06:25:31;;;;;;;11.63;5.30;;;;;;;2.38;100.00;99549.16;5104369;28;20089;-88
2023/03/07 06:28:12;;;;;;;7.85;4.15;;;;;;;2.27;100.00;99526.22;5104909;28;20020;-88
2023/03/07 06:30:53;;;;;;;8.00;3.87;;;;;;;2.06;100.00;99504.66;5094749;28;20060;-89
2023/03/07 06:35:57;;;;;;;6.22;3.10;;;;;;;1.86;100.00;99505.03;5130192;22;20047;-89
2023/03/07 06:42:14;;;;;;;5.55;3.00;;;;;;;1.92;100.00;99572.81;5112692;28;20062;-89
2023/03/07 06:44:49;;;;;;;7.63;2.97;;;;;;;1.47;100.00;99516.09;5089133;28;20394;-89
2023/03/07 06:47:14;;;;;;;5.78;3.10;;;;;;;1.49;100.00;99534.34;5088246;28;20051;-88
2023/03/07 06:49:42;;;;;;;4.27;2.97;;;;;;;1.32;100.00;99516.53;5091402;28;20410;-89
2023/03/07 06:52:54;;;;;;;10.63;2.72;;;;;;;1.60;100.00;99559.13;5092232;28;20024;-89
2023/03/07 07:08:55;;;;;;;10.38;3.80;;;;;;;1.49;100.00;99573.94;5066793;28;20036;-87
2023/03/07 07:11:29;;;;;;;19.25;4.18;;;;;;;1.24;100.00;99559.13;5061044;28;20036;-92
2023/03/07 07:14:02;;;;;;;8.82;3.88;;;;;;;1.10;100.00;99544.50;5071110;28;20024;-90
2023/03/07 07:16:28;;;;;;;7.55;4.22;;;;;;;1.02;100.00;99538.53;5069562;28;20079;-89
2023/03/07 07:19:37;;;;;;;10.83;4.20;;;;;;;1.25;100.00;99573.94;5071054;28;20044;-90
2023/03/07 08:02:25;;;;;;;8.53;4.57;;;;;;;0.02;100.00;99639.91;5066185;28;20326;-89
2023/03/07 08:18:58;;;;;;;;;;;;;;;;;;;;;
2023/03/07 08:24:56;;;;;;;15.73;5.50;;;;;;;0.34;100.00;99640.63;4947836;28;20046;-89
2023/03/07 08:27:47;;;;;;;12.20;5.83;;;;;;;0.34;100.00;99643.25;4991027;28;20500;-87
2023/03/07 08:40:52;;;;;;;12.73;6.17;;;;;;;-0.02;100.00;99618.47;4953282;29;20585;-89
2023/03/07 08:48:34;;;;;;;17.67;6.93;;;;;;;-0.05;100.00;99618.91;5040366;28;20044;-87
2023/03/07 08:51:31;;;;;;;14.98;6.90;;;;;;;-0.20;100.00;99603.44;5042280;28;20022;-88
2023/03/07 08:53:58;;;;;;;13.93;6.43;;;;;;;-0.16;100.00;99592.25;5134313;22;20139;-89
2023/03/07 08:57:02;;;;;;;15.48;7.55;;;;;;;0.39;100.00;99655.78;5234967;22;20053;-88
2023/03/07 08:59:27;;;;;;;18.27;8.18;;;;;;;0.47;100.00;99607.22;5097211;28;20023;-89
2023/03/07 09:12:49;;;;;;;21.90;9.23;;;;;;;1.13;100.00;99629.31;6155257;22;20099;-87
2023/03/07 09:15:16;;;;;;;23.90;10.13;;;;;;;1.12;100.00;99643.53;5160400;27;20023;-87
2023/03/07 09:32:15;;;;;;;21.07;10.60;;;;;;;0.94;100.00;99609.28;5959250;22;20492;-87
2023/03/07 09:51:23;;;;;;;24.23;12.55;;;;;;;1.71;100.00;99671.09;5113077;22;20062;-88
2023/03/07 09:54:10;;;;;;;25.70;12.57;;;;;;;1.74;100.00;99668.81;5085458;28;20041;-88
2023/03/07 09:56:45;;;;;;;24.00;11.65;;;;;;;1.82;100.00;99672.97;5072237;28;20115;-87
2023/03/07 09:59:48;;;;;;;23.10;12.43;;;;;;;1.81;100.00;99664.22;5081699;22;20096;-89
2023/03/07 10:02:46;;;;;;;19.63;10.60;;;;;;;1.86;100.00;99673.31;5112839;27;20296;-85
2023/03/07 10:08:42;;;;;;;18.20;9.57;;;;;;;1.63;100.00;99627.34;5138391;27;20095;-86
2023/03/07 10:12:04;;;;;;;15.95;8.32;;;;;;;2.06;100.00;99657.13;5146672;27;20051;-86
2023/03/07 10:15:13;;;;;;;14.35;7.80;;;;;;;2.23;100.00;99663.31;5132335;27;20027;-86
2023/03/07 10:24:58;;;;;;;11.73;6.57;;;;;;;2.35;100.00;99670.47;5151656;27;20103;-86
2023/03/07 10:30:36;;;;;;;11.27;6.50;;;;;;;1.99;100.00;99620.25;5156664;27;20332;-87
2023/03/07 11:25:25;;;;;;;10.98;5.60;;;;;;;3.59;100.00;99638.34;6015816;22;20134;-88
2023/03/07 11:34:42;;;;;;;8.95;5.43;;;;;;;3.87;100.00;99673.75;5118001;22;20055;-88
2023/03/07 11:40:48;;;;;;;6.50;4.20;;;;;;;3.61;100.00;99623.03;4953083;28;20769;-85
2023/03/07 11:43:16;;;;;;;7.72;4.10;;;;;;;4.07;100.00;99671.41;4937515;29;20054;-88
2023/03/07 11:45:51;;;;;;;6.43;4.00;;;;;;;3.99;100.00;99644.53;4988296;22;20052;-86
2023/03/07 11:48:58;;;;;;;5.43;3.90;;;;;;;4.00;100.00;99665.50;5071005;28;20032;-84
2023/03/07 11:52:03;;;;;;;4.75;3.28;;;;;;;3.96;100.00;99667.03;5072970;28;20368;-84
2023/03/07 11:54:57;;;;;;;4.85;3.30;;;;;;;3.94;100.00;99658.50;5021878;28;20479;-84
2023/03/07 11:57:54;;;;;;;4.30;3.03;;;;;;;3.78;100.00;99655.63;5036888;28;20075;-85
2023/03/07 12:00:32;;;;;;;6.15;3.90;;;;;;;3.89;100.00;99666.38;5058229;28;20032;-84
2023/03/07 12:03:13;;;;;;;5.97;3.60;;;;;;;3.93;100.00;99657.69;5055347;28;20527;-85
2023/03/07 12:05:53;;;;;;;6.20;4.00;;;;;;;3.89;100.00;99666.38;5050674;28;20033;-85
2023/03/07 12:08:35;;;;;;;5.03;3.37;;;;;;;3.98;100.00;99661.47;5052791;28;20287;-84
2023/03/07 12:11:10;;;;;;;4.78;3.35;;;;;;;4.04;100.00;99661.31;5052779;28;20494;-84
2023/03/07 12:14:17;;;;;;;6.93;3.33;;;;;;;3.93;100.00;99659.56;5052492;28;20029;-85
2023/03/07 12:17:01;;;;;;;4.75;3.40;;;;;;;3.96;100.00;99660.91;4997651;28;20577;-84
2023/03/07 12:19:41;;;;;;;5.15;3.33;;;;;;;4.13;100.00;99655.59;5034675;28;20053;-84
2023/03/07 12:22:15;;;;;;;4.72;3.08;;;;;;;4.36;100.00;99659.88;5052677;28;20373;-84
2023/03/07 12:24:59;;;;;;;4.10;2.90;;;;;;;4.40;100.00;99659.16;5052671;28;20040;-84
2023/03/07 12:27:40;;;;;;;4.55;3.22;;;;;;;4.47;100.00;99659.00;5047584;28;20106;-84
2023/03/07 12:30:18;;;;;;;5.33;3.90;;;;;;;4.39;100.00;99662.06;5031616;28;20035;-84
2023/03/07 12:32:44;;;;;;;4.80;3.03;;;;;;;4.48;100.00;99667.75;5047290;28;20620;-84
2023/03/07 12:35:28;;;;;;;4.43;3.15;;;;;;;4.55;100.00;99652.44;5051920;28;20100;-84
2023/03/07 12:38:26;;;;;;;5.50;3.40;;;;;;;4.67;100.00;99666.41;5051874;28;20460;-84
2023/03/07 12:40:58;;;;;;;5.60;3.78;;;;;;;4.72;100.00;99662.19;5051059;28;20107;-85
2023/03/07 12:43:36;;;;;;;5.75;4.07;;;;;;;4.67;100.00;99669.06;5049873;28;20485;-87
2023/03/07 12:46:26;;;;;;;6.15;4.25;;;;;;;4.56;100.00;99654.06;5051437;28;20032;-87
2023/03/07 12:49:08;;;;;;;8.73;4.72;;;;;;;4.46;100.00;99659.22;5034090;28;20029;-87
2023/03/07 12:51:42;;;;;;;9.63;5.63;;;;;;;4.27;100.00;99664.81;5052306;28;20052;-87
2023/03/07 12:54:28;;;;;;;8.40;5.27;;;;;;;4.19;100.00;99657.28;5052429;28;20488;-88
2023/03/07 12:57:05;;;;;;;7.70;4.97;;;;;;;4.02;100.00;99657.28;5052307;28;20283;-88
2023/03/07 12:59:35;;;;;;;8.88;4.97;;;;;;;3.97;100.00;99647.44;5052187;28;20025;-88
2023/03/07 13:02:15;;;;;;;8.48;5.10;;;;;;;4.05;100.00;99657.59;5049386;28;20044;-87
2023/03/07 13:04:42;;;;;;;10.45;6.43;;;;;;;4.01;100.00;99656.50;5051845;28;20029;-87
2023/03/07 13:07:14;;;;;;;10.30;6.22;;;;;;;3.95;100.00;99654.81;5035298;28;20183;-87
2023/03/07 13:09:45;;;;;;;11.98;6.70;;;;;;;3.96;100.00;99648.47;5051977;28;20036;-87
2023/03/07 13:12:22;;;;;;;11.50;6.78;;;;;;;4.06;100.00;99656.56;5051765;28;20040;-87
2023/03/07 13:14:53;;;;;;;13.68;7.60;;;;;;;4.04;100.00;99652.56;5032986;28;20041;-87
2023/03/07 13:17:32;;;;;;;15.00;8.07;;;;;;;4.09;100.00;99648.13;5031307;28;20033;-87
2023/03/07 13:20:01;;;;;;;15.50;8.25;;;;;;;4.15;100.00;99648.22;5031708;28;20103;-87
2023/03/07 13:22:26;;;;;;;19.25;9.55;;;;;;;4.21;100.00;99653.34;5031432;28;20029;-88
2023/03/07 13:24:53;;;;;;;20.17;9.90;;;;;;;4.23;100.00;99656.53;5031787;28;20029;-87
2023/03/07 13:27:25;;;;;;;20.30;9.98;;;;;;;4.21;100.00;99658.63;5030977;28;20029;-87
2023/03/07 13:30:08;;;;;;;22.48;10.82;;;;;;;4.16;100.00;99657.78;5042875;28;20404;-87
2023/03/07 13:32:55;;;;;;;20.35;10.68;;;;;;;4.07;100.00;99655.50;5050487;28;20064;-87
2023/03/07 13:35:29;;;;;;;19.98;10.90;;;;;;;3.94;100.00;99654.00;5049897;28;20052;-87
2023/03/07 13:38:09;;;;;;;20.25;11.13;;;;;;;3.82;100.00;99653.28;5051687;28;20029;-87
2023/03/07 13:40:35;;;;;;;20.25;11.00;;;;;;;3.71;100.00;99654.97;5050851;28;20036;-87
2023/03/07 13:43:21;;;;;;;20.23;9.83;;;;;;;3.57;100.00;99651.03;5050719;28;20033;-87
2023/03/07 13:45:48;;;;;;;20.63;10.27;;;;;;;3.39;100.00;99658.16;5050217;28;20040;-87
2023/03/07 13:48:36;;;;;;;18.58;9.80;;;;;;;3.31;100.00;99661.19;5050868;28;20111;-88
2023/03/07 13:51:05;;;;;;;17.77;9.93;;;;;;;3.15;100.00;99655.63;5035363;28;20044;-88
2023/03/07 13:53:40;;;;;;;16.83;9.15;;;;;;;3.03;100.00;99668.09;5051250;28;20048;-88
2023/03/07 13:56:14;;;;;;;15.60;8.63;;;;;;;2.93;100.00;99667.91;5051265;28;20109;-87
2023/03/07 13:58:51;;;;;;;17.42;8.85;;;;;;;2.88;100.00;99673.91;5051484;28;20029;-87
2023/03/07 14:01:33;;;;;;;15.82;8.75;;;;;;;2.95;100.00;99671.13;5050966;28;20032;-87
2023/03/07 14:04:21;;;;;;;14.60;7.73;;;;;;;3.15;100.00;99668.06;5050762;28;20037;-88
2023/03/07 14:06:48;;;;;;;15.30;7.80;;;;;;;3.40;100.00;99667.72;5050877;28;20279;-87
2023/03/07 14:09:18;;;;;;;17.13;8.68;;;;;;;3.62;100.00;99681.06;5050906;28;20021;-88
2023/03/07 14:12:16;;;;;;;15.55;9.00;;;;;;;3.66;100.00;99681.38;5050920;28;20119;-88
2023/03/07 14:14:48;;;;;;;15.95;8.60;;;;;;;3.64;100.00;99681.63;5051489;28;20017;-87
2023/03/07 14:17:52;;;;;;;14.65;8.23;;;;;;;3.64;100.00;99686.13;5050415;28;20084;-87
2023/03/07 14:20:40;;;;;;;12.75;8.05;;;;;;;3.58;100.00;99687.88;5052207;28;20079;-87
2023/03/07 14:23:27;;;;;;;9.68;6.60;;;;;;;3.51;100.00;99681.94;5051276;28;20148;-87
2023/03/07 14:26:14;;;;;;;12.47;7.37;;;;;;;3.48;100.00;99679.75;5049232;28;20476;-87
2023/03/07 14:28:55;;;;;;;10.57;7.07;;;;;;;3.53;100.00;99682.50;5051096;28;20025;-87
2023/03/07 14:31:36;;;;;;;11.43;7.28;;;;;;;3.58;100.00;99684.44;5049457;28;20036;-87
2023/03/07 14:34:20;;;;;;;10.82;6.75;;;;;;;3.51;100.00;99675.81;5049910;28;20013;-87
2023/03/07 14:36:50;;;;;;;10.50;7.05;;;;;;;3.42;100.00;99684.19;5049387;28;20060;-87
2023/03/07 14:39:16;;;;;;;10.40;6.93;;;;;;;3.31;100.00;99677.06;5049728;28;20071;-87
2023/03/07 14:42:17;;;;;;;9.98;6.85;;;;;;;3.31;100.00;99688.47;5050127;28;20033;-87
2023/03/07 14:45:17;;;;;;;11.37;6.60;;;;;;;3.30;100.00;99691.34;5050245;28;20021;-87
2023/03/07 14:47:59;;;;;;;11.57;7.07;;;;;;;3.18;100.00;99688.78;5049920;28;20033;-88
2023/03/07 14:50:27;;;;;;;9.90;6.30;;;;;;;3.24;100.00;99698.41;5049869;28;20039;-86
2023/03/07 14:53:25;;;;;;;6.05;4.28;;;;;;;3.10;100.00;99687.31;5047866;28;20473;-86
2023/03/07 14:55:52;;;;;;;6.25;4.00;;;;;;;2.93;100.00;99691.72;5045854;28;20021;-85
2023/03/07 14:58:28;;;;;;;4.88;3.65;;;;;;;2.85;100.00;99695.53;5048365;28;20468;-85
2023/03/07 15:01:14;;;;;;;7.50;3.63;;;;;;;2.84;100.00;99692.09;5049665;28;20043;-85
2023/03/07 15:03:51;;;;;;;5.70;3.83;;;;;;;2.69;100.00;99694.44;5049287;28;20298;-85
2023/03/07 15:06:20;;;;;;;4.65;3.67;;;;;;;2.61;100.00;99703.53;5049778;28;20035;-85
2023/03/07 15:08:48;;;;;;;7.90;4.38;;;;;;;2.56;100.00;99714.78;5049896;28;20021;-85
2023/03/07 15:11:29;;;;;;;3.45;3.00;;;;;;;2.42;100.00;99706.31;5049304;28;20380;-85
2023/03/07 15:14:15;;;;;;;3.60;1.73;;;;;;;1.89;100.00;99718.56;5049854;28;20025;-85
2023/03/07 15:16:47;;;;;;;2.05;1.30;;;;;;;1.71;100.00;99724.75;5033584;28;20025;-85
2023/03/07 15:19:30;;;;;;;4.10;1.67;;;;;;;1.60;100.00;99717.59;5047096;28;20047;-85
2023/03/07 15:22:00;;;;;;;1.73;1.30;;;;;;;1.57;100.00;99718.84;5039283;28;20024;-86
2023/03/07 15:24:29;;;;;;;2.87;1.40;;;;;;;1.63;100.00;99725.06;5047088;28;20291;-85
2023/03/07 15:26:55;;;;;;;3.35;1.50;;;;;;;1.57;100.00;99723.31;5047273;28;20075;-85
2023/03/07 15:29:26;;;;;;;2.05;1.48;;;;;;;1.57;100.00;99729.41;5046480;28;20123;-86
2023/03/07 15:32:05;;;;;;;1.50;1.10;;;;;;;1.49;100.00;99727.06;5049368;28;20547;-88
2023/03/07 15:34:36;;;;;;;1.65;1.13;;;;;;;1.35;100.00;99729.09;5050835;28;20033;-88
2023/03/07 15:37:24;;;;;;;2.47;1.27;;;;;;;1.31;100.00;99731.38;5049662;28;20477;-87
2023/03/07 15:40:01;;;;;;;3.70;1.30;;;;;;;1.29;100.00;99736.06;5049659;28;20116;-87
2023/03/07 15:42:28;;;;;;;1.50;0.98;;;;;;;1.35;100.00;99732.53;5042696;28;20033;-88
2023/03/07 15:44:59;;;;;;;2.17;1.07;;;;;;;1.30;100.00;99726.31;5049070;28;20025;-88
2023/03/07 15:47:27;;;;;;;3.27;1.47;;;;;;;1.33;100.00;99728.53;5048983;28;20304;-87